createdAt,value
2019-01-12T00:00:12.762Z,6.90
2019-01-12T00:02:54.790Z,6.90
2019-01-12T00:05:36.844Z,6.90
2019-01-12T00:08:15.973Z,6.90
2019-01-12T00:10:55.147Z,6.90
2019-01-12T00:13:34.237Z,6.90
2019-01-12T00:16:13.572Z,6.90
2019-01-12T00:18:52.681Z,6.90
2019-01-12T00:21:52.669Z,6.90
2019-01-12T00:24:31.944Z,6.90
2019-01-12T00:27:14.033Z,6.80
2019-01-12T00:29:53.173Z,6.90
2019-01-12T00:32:32.245Z,6.80
2019-01-12T00:35:31.357Z,6.80
2019-01-12T00:38:11.422Z,6.80
2019-01-12T00:40:50.610Z,6.80
2019-01-12T00:43:29.667Z,6.80
2019-01-12T00:46:09.628Z,6.80
2019-01-12T00:48:48.775Z,6.80
2019-01-12T00:51:27.994Z,6.80
2019-01-12T00:54:07.213Z,6.80
2019-01-12T00:56:46.587Z,6.80
2019-01-12T00:59:25.721Z,6.80
2019-01-12T01:02:05.626Z,6.80
2019-01-12T01:04:44.782Z,6.80
2019-01-12T01:07:27.323Z,6.80
2019-01-12T01:10:06.865Z,6.80
2019-01-12T01:12:33.092Z,6.80
2019-01-12T01:15:19.134Z,6.80
2019-01-12T01:17:58.341Z,6.90
2019-01-12T01:20:37.582Z,6.90
2019-01-12T01:23:36.894Z,6.80
2019-01-12T01:26:18.881Z,6.80
2019-01-12T01:28:58.116Z,6.80
2019-01-12T01:31:38.171Z,6.90
2019-01-12T01:34:17.281Z,6.80
2019-01-12T01:36:57.322Z,6.80
2019-01-12T01:39:37.422Z,6.80
2019-01-12T01:42:16.586Z,6.80
2019-01-12T01:44:58.698Z,6.80
2019-01-12T01:47:37.981Z,6.80
2019-01-12T01:50:17.938Z,6.80
2019-01-12T01:52:58.027Z,6.80
2019-01-12T01:55:38.027Z,6.80
2019-01-12T01:58:20.217Z,6.80
2019-01-12T02:00:59.506Z,6.80
2019-01-12T02:03:41.484Z,6.80
2019-01-12T02:06:20.692Z,6.80
2019-01-12T02:09:00.055Z,6.80
2019-01-12T02:11:39.165Z,6.80
2019-01-12T02:14:19.146Z,6.80
2019-01-12T02:16:58.280Z,6.80
2019-01-12T02:19:38.226Z,6.80
2019-01-12T02:22:17.425Z,6.80
2019-01-12T02:25:00.170Z,6.80
2019-01-12T02:27:40.874Z,6.80
2019-01-12T02:30:22.796Z,6.80
2019-01-12T02:33:02.773Z,6.80
2019-01-12T02:35:41.972Z,6.80
2019-01-12T02:38:21.918Z,6.80
2019-01-12T02:41:01.193Z,6.80
2019-01-12T02:43:40.229Z,6.80
2019-01-12T02:46:20.292Z,6.80
2019-01-12T02:48:59.426Z,6.80
2019-01-12T02:51:38.476Z,6.80
2019-01-12T02:54:17.671Z,6.80
2019-01-12T02:56:56.837Z,6.80
2019-01-12T02:59:36.097Z,6.80
2019-01-12T03:02:15.386Z,6.80
2019-01-12T03:04:55.330Z,6.80
2019-01-12T03:07:37.402Z,6.70
2019-01-12T03:10:16.772Z,6.70
2019-01-12T03:12:55.913Z,6.70
2019-01-12T03:15:35.261Z,6.70
2019-01-12T03:18:14.485Z,6.80
2019-01-12T03:20:53.717Z,6.80
2019-01-12T03:23:33.707Z,6.70
2019-01-12T03:26:12.779Z,6.70
2019-01-12T03:29:12.035Z,6.70
2019-01-12T03:31:54.198Z,6.70
2019-01-12T03:34:34.076Z,6.70
2019-01-12T03:37:14.143Z,6.70
2019-01-12T03:39:54.057Z,6.70
2019-01-12T03:42:34.067Z,6.70
2019-01-12T03:45:16.266Z,6.70
2019-01-12T03:47:58.306Z,6.70
2019-01-12T03:50:37.354Z,6.60
2019-01-12T03:53:16.779Z,6.60
2019-01-12T03:55:53.938Z,6.60
2019-01-12T03:58:40.002Z,6.60
2019-01-12T04:01:19.185Z,6.60
2019-01-12T04:03:59.114Z,6.60
2019-01-12T04:06:38.312Z,6.60
2019-01-12T04:09:23.348Z,6.60
2019-01-12T04:12:02.791Z,6.60
2019-01-12T04:14:44.853Z,6.60
2019-01-12T04:17:24.008Z,6.60
2019-01-12T04:20:04.018Z,6.50
2019-01-12T04:22:43.065Z,6.50
2019-01-12T04:25:22.135Z,6.50
2019-01-12T04:28:04.297Z,6.50
2019-01-12T04:30:44.210Z,6.50
2019-01-12T04:33:24.196Z,6.50
2019-01-12T04:36:06.319Z,6.40
2019-01-12T04:38:45.446Z,6.40
2019-01-12T04:41:24.699Z,6.40
2019-01-12T04:44:03.825Z,6.40
2019-01-12T04:46:40.966Z,6.40
2019-01-12T04:49:27.013Z,6.40
2019-01-12T04:52:06.941Z,6.40
2019-01-12T04:54:49.080Z,6.30
2019-01-12T04:57:31.013Z,6.30
2019-01-12T05:00:09.940Z,6.30
2019-01-12T05:02:56.007Z,6.30
2019-01-12T05:05:35.127Z,6.30
2019-01-12T05:08:15.073Z,6.30
2019-01-12T05:11:14.333Z,6.30
2019-01-12T05:13:56.340Z,6.20
2019-01-12T05:16:35.537Z,6.30
2019-01-12T05:19:14.724Z,6.30
2019-01-12T05:21:54.681Z,6.30
2019-01-12T05:24:53.910Z,6.20
2019-01-12T05:27:36.014Z,6.20
2019-01-12T05:30:15.051Z,6.20
2019-01-12T05:32:52.225Z,6.20
2019-01-12T05:35:38.273Z,6.20
2019-01-12T05:38:18.122Z,6.20
2019-01-12T05:40:57.182Z,6.20
2019-01-12T05:43:36.330Z,6.20
2019-01-12T05:46:15.536Z,6.20
2019-01-12T05:48:55.560Z,6.20
2019-01-12T05:51:37.755Z,6.20
2019-01-12T05:54:20.017Z,6.20
2019-01-12T05:56:59.268Z,6.20
2019-01-12T05:59:39.382Z,6.20
2019-01-12T06:02:18.498Z,6.20
2019-01-12T06:04:57.822Z,6.20
2019-01-12T06:07:36.949Z,6.20
2019-01-12T06:10:16.188Z,6.20
2019-01-12T06:12:53.292Z,6.10
2019-01-12T06:15:39.381Z,6.10
2019-01-12T06:18:39.434Z,6.20
2019-01-12T06:21:18.556Z,6.20
2019-01-12T06:24:00.652Z,6.20
2019-01-12T06:26:42.685Z,6.20
2019-01-12T06:29:22.016Z,6.20
2019-01-12T06:32:01.356Z,6.20
2019-01-12T06:34:40.401Z,6.10
2019-01-12T06:37:19.488Z,6.10
2019-01-12T06:39:58.593Z,6.10
2019-01-12T06:42:57.701Z,6.10
2019-01-12T06:45:36.677Z,6.10
2019-01-12T06:48:18.828Z,6.10
2019-01-12T06:51:01.112Z,6.10
2019-01-12T06:53:43.137Z,6.10
2019-01-12T06:56:23.070Z,6.10
2019-01-12T06:59:02.293Z,6.10
2019-01-12T07:01:41.496Z,6.10
2019-01-12T07:04:20.606Z,6.00
2019-01-12T07:06:59.758Z,6.10
2019-01-12T07:09:38.941Z,6.10
2019-01-12T07:12:18.135Z,6.10
2019-01-12T07:14:58.122Z,6.10
2019-01-12T07:17:37.224Z,6.10
2019-01-12T07:20:19.626Z,6.10
2019-01-12T07:23:01.712Z,6.10
2019-01-12T07:25:44.028Z,6.10
2019-01-12T07:28:21.256Z,6.10
2019-01-12T07:31:07.323Z,6.10
2019-01-12T07:33:47.274Z,6.10
2019-01-12T07:36:27.309Z,6.10
2019-01-12T07:39:26.737Z,6.10
2019-01-12T07:42:06.573Z,6.00
2019-01-12T07:44:45.751Z,6.00
2019-01-12T07:47:24.794Z,6.00
2019-01-12T07:50:06.790Z,6.10
2019-01-12T07:52:48.908Z,6.10
2019-01-12T07:55:27.943Z,6.10
2019-01-12T07:58:07.115Z,6.10
2019-01-12T08:00:46.922Z,6.10
2019-01-12T08:03:29.177Z,6.20
2019-01-12T08:06:28.473Z,6.20
2019-01-12T08:09:08.500Z,6.20
2019-01-12T08:12:07.865Z,6.20
2019-01-12T08:14:47.247Z,6.20
2019-01-12T08:17:26.318Z,6.20
2019-01-12T08:20:06.263Z,6.30
2019-01-12T08:22:48.189Z,6.20
2019-01-12T08:25:27.256Z,6.30
2019-01-12T08:28:06.473Z,6.30
2019-01-12T08:30:45.628Z,6.30
2019-01-12T08:36:25.241Z,6.30
2019-01-12T08:39:04.414Z,6.30
2019-01-12T08:41:43.604Z,6.30
2019-01-12T08:44:22.730Z,6.30
2019-01-12T08:47:04.834Z,6.30
2019-01-12T08:49:46.973Z,6.30
2019-01-12T08:52:28.987Z,6.40
2019-01-12T08:55:08.086Z,6.50
2019-01-12T08:57:47.234Z,6.50
2019-01-12T09:00:26.664Z,6.50
2019-01-12T09:03:06.624Z,6.50
2019-01-12T09:05:46.609Z,6.60
2019-01-12T09:08:28.729Z,6.60
2019-01-12T09:11:27.793Z,6.50
2019-01-12T09:14:09.905Z,6.50
2019-01-12T09:16:52.124Z,6.50
2019-01-12T09:19:38.284Z,6.50
2019-01-12T09:22:20.423Z,6.60
2019-01-12T09:25:02.524Z,6.50
2019-01-12T09:27:42.377Z,6.50
2019-01-12T09:30:22.302Z,6.50
2019-01-12T09:33:04.333Z,6.50
2019-01-12T09:35:46.532Z,6.50
2019-01-12T09:38:25.739Z,6.50
2019-01-12T09:41:04.990Z,6.40
2019-01-12T09:43:44.252Z,6.40
2019-01-12T09:46:26.240Z,6.40
2019-01-12T09:49:05.354Z,6.40
2019-01-12T09:51:44.482Z,6.30
2019-01-12T09:54:24.321Z,6.30
2019-01-12T09:57:23.571Z,6.30
2019-01-12T10:00:03.845Z,6.40
2019-01-12T10:02:43.041Z,6.40
2019-01-12T10:05:22.330Z,6.40
2019-01-12T10:07:48.549Z,6.40
2019-01-12T10:10:34.578Z,6.50
2019-01-12T10:13:14.311Z,6.50
2019-01-12T10:15:56.440Z,6.40
2019-01-12T10:18:35.565Z,6.40
2019-01-12T10:21:17.786Z,6.30
2019-01-12T10:23:59.937Z,6.30
2019-01-12T10:26:59.099Z,6.30
2019-01-12T10:29:58.168Z,6.30
2019-01-12T10:32:57.392Z,6.30
2019-01-12T10:35:39.708Z,6.30
2019-01-12T10:38:22.212Z,6.30
2019-01-12T10:41:04.192Z,6.40
2019-01-12T10:43:44.308Z,6.40
2019-01-12T10:46:24.348Z,6.40
2019-01-12T10:49:03.493Z,6.40
2019-01-12T10:51:42.519Z,6.40
2019-01-12T10:54:21.727Z,6.40
2019-01-12T10:57:05.452Z,6.50
2019-01-12T10:59:46.206Z,6.40
2019-01-12T11:02:25.421Z,6.50
2019-01-12T11:05:04.581Z,6.50
2019-01-12T11:07:43.615Z,6.50
2019-01-12T11:10:25.702Z,6.50
2019-01-12T11:13:07.737Z,6.50
2019-01-12T11:15:49.695Z,6.50
2019-01-12T11:18:29.694Z,6.50
2019-01-12T11:21:09.654Z,6.50
2019-01-12T11:23:49.039Z,6.50
2019-01-12T11:26:31.103Z,6.50
2019-01-12T11:29:10.251Z,6.50
2019-01-12T11:31:49.294Z,6.60
2019-01-12T11:34:28.467Z,6.60
2019-01-12T11:37:07.559Z,6.60
2019-01-12T11:39:46.663Z,6.70
2019-01-12T11:42:25.987Z,6.60
2019-01-12T11:45:06.176Z,6.70
2019-01-12T11:47:46.149Z,6.70
2019-01-12T11:50:25.255Z,6.70
2019-01-12T11:53:04.407Z,6.70
2019-01-12T11:56:03.935Z,6.70
2019-01-12T11:58:43.146Z,6.70
2019-01-12T12:01:22.315Z,6.70
2019-01-12T12:04:02.298Z,6.70
2019-01-12T12:06:44.402Z,6.70
2019-01-12T12:09:23.552Z,6.80
2019-01-12T12:12:02.928Z,6.80
2019-01-12T12:14:44.903Z,6.80
2019-01-12T12:17:24.056Z,6.80
2019-01-12T12:20:04.029Z,6.80
2019-01-12T12:22:43.272Z,6.80
2019-01-12T12:25:22.532Z,6.90
2019-01-12T12:28:02.529Z,6.90
2019-01-12T12:31:02.560Z,6.90
2019-01-12T12:33:44.835Z,6.90
2019-01-12T12:36:44.078Z,6.90
2019-01-12T12:39:43.316Z,6.90
2019-01-12T12:42:42.489Z,6.90
2019-01-12T12:45:24.497Z,7.00
2019-01-12T12:48:03.639Z,7.00
2019-01-12T12:50:43.624Z,7.00
2019-01-12T12:53:22.741Z,7.00
2019-01-12T12:56:01.860Z,7.00
2019-01-12T12:58:43.910Z,7.10
2019-01-12T13:01:25.983Z,7.10
2019-01-12T13:04:25.342Z,7.10
2019-01-12T13:07:24.478Z,7.10
2019-01-12T13:10:06.357Z,7.20
2019-01-12T13:13:05.591Z,7.30
2019-01-12T13:15:47.727Z,7.30
2019-01-12T13:18:32.747Z,7.30
2019-01-12T13:21:12.713Z,7.30
2019-01-12T13:23:51.984Z,7.30
2019-01-12T13:26:31.083Z,7.40
2019-01-12T13:29:11.110Z,7.30
2019-01-12T13:31:50.213Z,7.40
2019-01-12T13:34:29.380Z,7.40
2019-01-12T13:37:09.263Z,7.40
2019-01-12T13:39:51.628Z,7.40
2019-01-12T13:42:51.051Z,7.50
2019-01-12T13:45:33.035Z,7.50
2019-01-12T13:48:12.156Z,7.50
2019-01-12T13:50:51.542Z,7.50
2019-01-12T13:53:30.737Z,7.50
2019-01-12T13:56:09.872Z,7.60
2019-01-12T13:58:49.827Z,7.60
2019-01-12T14:01:28.865Z,7.70
2019-01-12T14:04:10.938Z,7.70
2019-01-12T14:07:09.994Z,7.70
2019-01-12T14:09:52.146Z,7.70
2019-01-12T14:12:34.367Z,7.70
2019-01-12T14:15:16.511Z,7.70
2019-01-12T14:17:58.584Z,7.70
2019-01-12T14:20:37.697Z,7.70
2019-01-12T14:23:16.721Z,7.80
2019-01-12T14:25:55.910Z,7.80
2019-01-12T14:28:35.103Z,7.80
2019-01-12T14:31:15.194Z,7.70
2019-01-12T14:33:55.237Z,7.70
2019-01-12T14:36:37.555Z,7.70
2019-01-12T14:39:17.602Z,7.80
2019-01-12T14:41:56.927Z,7.80
2019-01-12T14:44:36.072Z,7.70
2019-01-12T14:47:15.269Z,7.70
2019-01-12T14:49:54.476Z,7.70
2019-01-12T14:52:34.441Z,7.70
2019-01-12T14:55:16.458Z,7.70
2019-01-12T14:58:02.720Z,7.70
2019-01-12T15:00:39.734Z,7.70
2019-01-12T15:03:19.671Z,7.70
2019-01-12T15:05:59.220Z,7.70
2019-01-12T15:08:38.438Z,7.60
2019-01-12T15:11:18.506Z,7.60
2019-01-12T15:13:57.878Z,7.50
2019-01-12T15:16:36.960Z,7.50
2019-01-12T15:19:16.095Z,7.50
2019-01-12T15:21:55.298Z,7.60
2019-01-12T15:24:35.375Z,7.60
2019-01-12T15:27:14.462Z,7.50
2019-01-12T15:29:54.533Z,7.50
2019-01-12T15:32:53.639Z,7.50
2019-01-12T15:35:35.881Z,7.50
2019-01-12T15:38:35.237Z,7.40
2019-01-12T15:41:15.072Z,7.40
2019-01-12T15:43:55.140Z,7.40
2019-01-12T15:46:37.370Z,7.50
2019-01-12T15:49:16.642Z,7.50
2019-01-12T15:51:55.748Z,7.50
2019-01-12T15:54:55.074Z,7.50
2019-01-12T15:57:34.117Z,7.50
2019-01-12T16:00:16.367Z,7.50
2019-01-12T16:02:55.543Z,7.50
2019-01-12T16:05:34.838Z,7.50
2019-01-12T16:08:14.804Z,7.40
2019-01-12T16:11:13.996Z,7.40
2019-01-12T16:13:56.202Z,7.30
2019-01-12T16:16:55.321Z,7.30
2019-01-12T16:19:37.399Z,7.30
2019-01-12T16:22:19.499Z,7.30
2019-01-12T16:24:59.480Z,7.30
2019-01-12T16:27:38.746Z,7.20
2019-01-12T16:30:18.868Z,7.20
2019-01-12T16:32:58.003Z,7.20
2019-01-12T16:35:37.880Z,7.20
2019-01-12T16:38:20.059Z,7.20
2019-01-12T16:41:02.117Z,7.10
2019-01-12T16:43:42.068Z,7.10
2019-01-12T16:46:21.235Z,7.10
2019-01-12T16:49:01.163Z,7.10
2019-01-12T16:51:43.403Z,7.10
2019-01-12T16:54:25.272Z,7.10
2019-01-12T16:57:04.447Z,7.20
2019-01-12T16:59:43.710Z,7.20
2019-01-12T17:02:22.852Z,7.20
2019-01-12T17:05:02.245Z,7.20
2019-01-12T17:07:44.442Z,7.20
2019-01-12T17:10:24.405Z,7.10
2019-01-12T17:13:03.480Z,7.10
2019-01-12T17:15:42.796Z,7.10
2019-01-12T17:18:21.997Z,7.10
2019-01-12T17:21:01.212Z,7.10
2019-01-12T17:23:40.501Z,7.10
2019-01-12T17:26:20.529Z,7.10
2019-01-12T17:29:00.583Z,7.00
2019-01-12T17:31:39.805Z,7.00
2019-01-12T17:34:18.919Z,7.00
2019-01-12T17:36:58.884Z,7.00
2019-01-12T17:39:39.236Z,7.00
2019-01-12T17:42:38.571Z,7.00
2019-01-12T17:45:17.739Z,7.00
2019-01-12T17:48:16.963Z,7.00
2019-01-12T17:51:16.977Z,7.00
2019-01-12T17:53:57.084Z,7.00
2019-01-12T17:56:37.088Z,7.00
2019-01-12T17:59:17.175Z,7.00
2019-01-12T18:02:14.409Z,7.00
2019-01-12T18:05:00.463Z,7.00
2019-01-12T18:07:40.463Z,7.00
2019-01-12T18:10:20.578Z,7.00
2019-01-12T18:13:02.912Z,7.00
2019-01-12T18:15:32.039Z,7.00
2019-01-12T18:18:18.080Z,7.00
2019-01-12T18:20:58.021Z,6.90
2019-01-12T18:23:37.152Z,6.90
2019-01-12T18:26:17.199Z,6.80
2019-01-12T18:29:16.479Z,6.80
2019-01-12T18:31:56.408Z,6.80
2019-01-12T18:34:33.565Z,6.80
2019-01-12T18:37:22.278Z,6.90
2019-01-12T18:40:01.659Z,6.90
2019-01-12T18:42:41.749Z,6.90
2019-01-12T18:45:21.781Z,6.90
2019-01-12T18:48:20.900Z,6.90
2019-01-12T18:51:03.191Z,6.90
2019-01-12T18:53:45.387Z,6.90
2019-01-12T18:56:27.513Z,6.80
2019-01-12T18:59:06.631Z,6.80
2019-01-12T19:01:43.896Z,6.90
2019-01-12T19:04:29.937Z,6.90
2019-01-12T19:07:29.147Z,6.90
2019-01-12T19:10:26.383Z,6.90
2019-01-12T19:13:35.327Z,6.90
2019-01-12T19:16:34.588Z,7.00
2019-01-12T19:19:16.525Z,6.90
2019-01-12T19:21:55.582Z,6.90
2019-01-12T19:24:35.613Z,6.80
2019-01-12T19:27:14.748Z,6.80
2019-01-12T19:29:53.948Z,6.80
2019-01-12T19:32:33.113Z,6.70
2019-01-12T19:35:12.376Z,6.70
2019-01-12T19:37:51.761Z,6.70
2019-01-12T19:40:31.690Z,6.60
2019-01-12T19:43:13.832Z,6.70
2019-01-12T19:46:13.160Z,6.70
2019-01-12T19:49:12.520Z,6.70
2019-01-12T19:51:51.710Z,6.70
2019-01-12T19:54:31.736Z,6.70
2019-01-12T19:57:11.677Z,6.70
2019-01-12T19:59:53.837Z,6.70
2019-01-12T20:02:53.170Z,6.70
2019-01-12T20:05:33.239Z,6.60
2019-01-12T20:08:13.143Z,6.60
2019-01-12T20:10:55.263Z,6.60
2019-01-12T20:13:35.210Z,6.50
2019-01-12T20:16:17.585Z,6.50
2019-01-12T20:18:59.836Z,6.50
2019-01-12T20:21:41.881Z,6.50
2019-01-12T20:24:23.895Z,6.50
2019-01-12T20:27:03.853Z,6.50
2019-01-12T20:29:43.109Z,6.50
2019-01-12T20:32:23.126Z,6.50
2019-01-12T20:35:03.171Z,6.50
2019-01-12T20:37:43.171Z,6.60
2019-01-12T20:40:42.353Z,6.60
2019-01-12T20:43:24.414Z,6.60
2019-01-12T20:46:06.387Z,6.60
2019-01-12T20:48:45.522Z,6.60
2019-01-12T20:51:24.693Z,6.60
2019-01-12T20:54:04.647Z,6.70
2019-01-12T20:56:40.251Z,6.80
2019-01-12T20:59:10.298Z,6.80
2019-01-12T21:01:49.258Z,6.80
2019-01-12T21:04:33.949Z,6.80
2019-01-12T21:07:24.816Z,6.90
2019-01-12T21:10:20.184Z,6.80
2019-01-12T21:13:01.966Z,6.80
2019-01-12T21:15:41.178Z,6.80
2019-01-12T21:18:20.507Z,6.80
2019-01-12T21:21:02.433Z,6.70
2019-01-12T21:23:41.623Z,6.80
2019-01-12T21:26:21.796Z,6.80
2019-01-12T21:29:03.723Z,6.80
2019-01-12T21:31:42.829Z,6.80
2019-01-12T21:34:22.846Z,6.80
2019-01-12T21:37:00.064Z,6.70
2019-01-12T21:39:46.109Z,6.70
2019-01-12T21:42:25.241Z,6.80
2019-01-12T21:45:04.582Z,6.80
2019-01-12T21:47:44.487Z,6.80
2019-01-12T21:50:26.744Z,6.70
2019-01-12T21:53:09.167Z,6.70
2019-01-12T21:55:51.155Z,6.70
2019-01-12T21:58:30.381Z,6.70
2019-01-12T22:01:07.526Z,6.70
2019-01-12T22:04:10.714Z,6.70
2019-01-12T22:06:50.689Z,6.80
2019-01-12T22:09:29.850Z,6.80
2019-01-12T22:12:08.958Z,6.80
2019-01-12T22:14:51.107Z,6.80
2019-01-12T22:17:30.251Z,6.90
2019-01-12T22:20:10.277Z,6.90
2019-01-12T22:22:49.447Z,6.90
2019-01-12T22:25:28.505Z,6.90
2019-01-12T22:28:28.096Z,6.90
2019-01-12T22:31:07.314Z,6.90
2019-01-12T22:33:47.353Z,6.90
2019-01-12T22:36:26.585Z,6.90
2019-01-12T22:39:05.835Z,6.90
2019-01-12T22:41:45.003Z,6.90
2019-01-12T22:44:24.025Z,6.90
2019-01-12T22:47:03.254Z,6.90
2019-01-12T22:49:42.373Z,6.90
2019-01-12T22:52:21.524Z,6.90
2019-01-12T22:55:01.483Z,6.90
2019-01-12T22:57:43.504Z,6.90
2019-01-12T23:00:22.619Z,6.90
2019-01-12T23:03:02.784Z,6.90
2019-01-12T23:05:42.734Z,6.90
2019-01-12T23:08:24.695Z,6.90
2019-01-12T23:11:04.645Z,6.90
2019-01-12T23:13:43.846Z,6.90
2019-01-12T23:16:23.024Z,6.90
2019-01-12T23:19:03.143Z,7.00
2019-01-12T23:21:43.073Z,7.00
2019-01-12T23:24:23.097Z,7.00
2019-01-12T23:27:05.348Z,7.00
2019-01-12T23:29:47.478Z,7.00
2019-01-12T23:32:29.660Z,7.00
2019-01-12T23:35:08.813Z,7.00
2019-01-12T23:37:48.893Z,7.10
2019-01-12T23:40:28.810Z,7.10
2019-01-12T23:43:07.822Z,7.10
2019-01-12T23:45:49.987Z,7.10
2019-01-12T23:48:32.194Z,7.10
2019-01-12T23:51:14.206Z,7.10
2019-01-12T23:53:53.325Z,7.10
2019-01-12T23:56:32.582Z,7.10
2019-01-12T23:59:11.783Z,7.10
